createdAt,value
2023-05-19T00:02:27.376Z,12.93
2023-05-19T00:05:13.240Z,14.50
2023-05-19T00:07:59.913Z,13.10
2023-05-19T00:10:43.748Z,13.33
2023-05-19T00:13:27.554Z,14.00
2023-05-19T00:16:13.974Z,13.43
2023-05-19T00:19:00.332Z,15.57
2023-05-19T00:21:43.747Z,14.63
2023-05-19T00:24:26.853Z,14.70
2023-05-19T00:27:09.979Z,14.97
2023-05-19T00:29:53.120Z,14.77
2023-05-19T00:32:37.777Z,14.50
2023-05-19T00:35:21.969Z,14.87
2023-05-19T00:38:05.074Z,16.30
2023-05-19T00:40:48.980Z,14.67
2023-05-19T00:43:34.489Z,15.77
2023-05-19T00:46:17.809Z,14.67
2023-05-19T00:49:02.350Z,15.20
2023-05-19T00:51:45.679Z,15.10
2023-05-19T00:54:29.055Z,14.50
2023-05-19T00:57:12.344Z,15.50
2023-05-19T00:59:55.570Z,14.77
2023-05-19T01:02:40.095Z,15.37
2023-05-19T01:05:24.975Z,16.17
2023-05-19T01:08:08.222Z,15.53
2023-05-19T01:10:51.370Z,14.97
2023-05-19T01:13:35.732Z,16.23
2023-05-19T01:16:30.946Z,15.60
2023-05-19T01:19:30.852Z,15.27
2023-05-19T01:22:24.394Z,15.30
2023-05-19T01:25:28.751Z,14.93
2023-05-19T01:28:33.321Z,16.97
2023-05-19T01:31:19.686Z,15.10
2023-05-19T01:34:04.785Z,15.47
2023-05-19T01:36:50.464Z,16.33
2023-05-19T01:39:34.651Z,14.50
2023-05-19T01:42:19.231Z,16.63
2023-05-19T01:45:02.347Z,15.30
2023-05-19T01:47:53.549Z,17.20
2023-05-19T01:50:36.684Z,18.23
2023-05-19T01:53:19.788Z,18.73
2023-05-19T01:56:02.935Z,18.43
2023-05-19T01:58:48.304Z,17.70
2023-05-19T02:01:36.006Z,17.43
2023-05-19T02:04:26.135Z,17.67
2023-05-19T02:07:16.668Z,18.53
2023-05-19T02:10:05.759Z,18.03
2023-05-19T02:12:53.928Z,17.13
2023-05-19T02:15:42.533Z,17.03
2023-05-19T02:18:25.797Z,18.40
2023-05-19T02:21:13.366Z,17.67
2023-05-19T02:23:56.533Z,18.73
2023-05-19T02:26:39.613Z,17.80
2023-05-19T02:29:23.188Z,18.17
2023-05-19T02:32:08.059Z,18.13
2023-05-19T02:34:51.492Z,18.63
2023-05-19T02:37:36.067Z,19.20
2023-05-19T02:40:20.170Z,18.77
2023-05-19T02:43:03.537Z,18.93
2023-05-19T02:45:46.782Z,20.33
2023-05-19T02:48:29.950Z,20.13
2023-05-19T02:51:13.129Z,19.77
2023-05-19T02:53:57.580Z,20.93
2023-05-19T02:56:40.789Z,21.60
2023-05-19T02:59:25.633Z,20.70
2023-05-19T03:02:09.012Z,21.47
2023-05-19T03:04:52.234Z,21.53
2023-05-19T03:07:35.427Z,20.80
2023-05-19T03:10:20.229Z,20.17
2023-05-19T03:13:03.471Z,23.03
2023-05-19T03:15:46.742Z,20.80
2023-05-19T03:18:30.019Z,21.23
2023-05-19T03:21:13.341Z,20.10
2023-05-19T03:23:56.508Z,20.53
2023-05-19T03:26:41.118Z,20.37
2023-05-19T03:29:24.596Z,21.43
2023-05-19T03:34:58.016Z,23.43
2023-05-19T03:37:41.388Z,22.40
2023-05-19T03:40:24.656Z,22.07
2023-05-19T03:43:10.184Z,22.03
2023-05-19T03:45:53.763Z,22.10
2023-05-19T03:48:37.337Z,21.57
2023-05-19T03:51:20.853Z,23.07
2023-05-19T03:54:04.573Z,22.57
2023-05-19T03:56:47.835Z,25.50
2023-05-19T03:59:33.257Z,23.27
2023-05-19T04:02:17.325Z,22.67
2023-05-19T04:05:00.878Z,22.07
2023-05-19T04:07:46.662Z,21.60
2023-05-19T04:10:36.359Z,20.17
2023-05-19T04:13:19.760Z,20.90
2023-05-19T04:16:05.440Z,21.30
2023-05-19T04:18:48.922Z,21.13
2023-05-19T04:21:32.171Z,22.30
2023-05-19T04:24:15.448Z,21.73
2023-05-19T04:27:02.777Z,21.03
2023-05-19T04:29:48.513Z,20.60
2023-05-19T04:32:33.667Z,20.00
2023-05-19T04:35:17.636Z,19.67
2023-05-19T04:38:02.989Z,19.87
2023-05-19T04:40:46.416Z,18.93
2023-05-19T04:43:30.819Z,21.20
2023-05-19T04:46:14.639Z,19.37
2023-05-19T04:49:01.435Z,19.70
2023-05-19T04:51:46.390Z,18.17
2023-05-19T04:54:29.699Z,18.50
2023-05-19T04:57:13.017Z,19.80
2023-05-19T05:00:00.735Z,20.03
2023-05-19T05:02:44.097Z,19.20
2023-05-19T05:05:28.804Z,18.90
2023-05-19T05:08:15.306Z,19.93
2023-05-19T05:10:59.580Z,19.37
2023-05-19T05:13:43.884Z,19.70
2023-05-19T05:16:27.807Z,19.30
2023-05-19T05:19:11.724Z,18.43
2023-05-19T05:21:57.586Z,19.70
2023-05-19T05:24:41.564Z,19.40
2023-05-19T05:27:24.808Z,19.43
2023-05-19T05:30:09.429Z,18.77
2023-05-19T05:32:52.752Z,19.30
2023-05-19T05:35:36.295Z,18.80
2023-05-19T05:38:20.932Z,18.30
2023-05-19T05:41:04.169Z,18.67
2023-05-19T05:43:47.425Z,18.97
2023-05-19T05:46:30.834Z,18.30
2023-05-19T05:49:48.316Z,19.07
2023-05-19T05:52:35.821Z,19.07
2023-05-19T05:58:46.627Z,16.97
2023-05-19T06:01:35.991Z,17.50
2023-05-19T06:04:20.706Z,16.17
2023-05-19T06:07:04.102Z,16.37
2023-05-19T06:09:47.367Z,15.80
2023-05-19T06:12:32.081Z,16.83
2023-05-19T06:15:16.012Z,15.93
2023-05-19T06:17:59.467Z,17.20
2023-05-19T06:20:43.104Z,17.60
2023-05-19T06:23:27.126Z,18.13
2023-05-19T06:26:10.436Z,18.63
2023-05-19T06:28:55.138Z,17.63
2023-05-19T06:31:38.644Z,18.47
2023-05-19T06:34:22.740Z,17.70
2023-05-19T06:37:06.253Z,18.43
2023-05-19T06:39:49.750Z,18.27
2023-05-19T06:42:33.108Z,17.30
2023-05-19T06:45:22.667Z,17.33
2023-05-19T06:48:06.413Z,16.63
2023-05-19T06:50:52.972Z,16.40
2023-05-19T06:53:36.265Z,15.70
2023-05-19T06:56:19.796Z,16.53
2023-05-19T06:59:03.586Z,16.73
2023-05-19T07:01:48.445Z,15.60
2023-05-19T07:04:31.741Z,16.23
2023-05-19T07:07:19.422Z,16.00
2023-05-19T07:10:02.815Z,15.67
2023-05-19T07:12:46.146Z,14.37
2023-05-19T07:15:29.418Z,14.00
2023-05-19T07:18:14.087Z,14.03
2023-05-19T07:20:57.789Z,14.67
2023-05-19T07:23:40.989Z,14.60
2023-05-19T07:26:24.412Z,15.17
2023-05-19T07:29:07.590Z,14.97
2023-05-19T07:31:54.358Z,14.77
2023-05-19T07:34:41.482Z,14.63
2023-05-19T07:37:24.675Z,13.27
2023-05-19T07:40:09.477Z,14.90
2023-05-19T07:42:52.709Z,13.27
2023-05-19T07:45:36.235Z,14.13
2023-05-19T07:48:19.497Z,14.27
2023-05-19T07:51:04.234Z,14.57
2023-05-19T07:53:48.212Z,17.63
2023-05-19T07:56:31.469Z,15.13
2023-05-19T07:59:14.696Z,13.63
2023-05-19T08:01:57.924Z,13.10
2023-05-19T08:04:49.113Z,12.87
2023-05-19T08:07:47.531Z,12.67
2023-05-19T08:10:31.323Z,12.57
2023-05-19T08:13:14.851Z,13.37
2023-05-19T08:16:00.122Z,14.13
2023-05-19T08:18:44.451Z,13.93
2023-05-19T08:21:27.850Z,13.63
2023-05-19T08:24:12.703Z,15.27
2023-05-19T08:26:56.129Z,14.17
2023-05-19T08:29:39.754Z,12.87
2023-05-19T08:32:32.482Z,13.73
2023-05-19T08:35:15.984Z,12.40
2023-05-19T08:37:59.228Z,12.63
2023-05-19T08:40:46.193Z,14.27
2023-05-19T08:43:29.572Z,13.30
2023-05-19T08:46:17.000Z,14.67
2023-05-19T08:49:11.673Z,14.07
2023-05-19T08:52:02.494Z,14.70
2023-05-19T08:54:52.156Z,13.83
2023-05-19T08:57:38.483Z,15.53
2023-05-19T09:00:22.755Z,16.13
2023-05-19T09:03:18.244Z,14.43
2023-05-19T09:06:08.828Z,14.77
2023-05-19T09:08:52.265Z,13.20
2023-05-19T09:11:38.829Z,13.37
2023-05-19T09:14:24.439Z,12.57
2023-05-19T09:17:08.171Z,13.17
2023-05-19T09:19:54.806Z,13.33
2023-05-19T09:22:43.050Z,13.00
2023-05-19T09:25:26.850Z,12.27
2023-05-19T09:28:10.328Z,11.73
2023-05-19T09:31:02.893Z,14.03
2023-05-19T09:33:46.975Z,12.53
2023-05-19T09:36:31.072Z,12.33
2023-05-19T09:39:15.825Z,12.60
2023-05-19T09:41:59.101Z,13.77
2023-05-19T09:44:43.619Z,13.50
2023-05-19T09:47:29.364Z,14.00
2023-05-19T09:50:14.356Z,12.90
2023-05-19T09:52:58.605Z,12.90
2023-05-19T09:55:43.655Z,13.87
2023-05-19T09:58:28.039Z,13.37
2023-05-19T10:01:11.463Z,11.93
2023-05-19T10:03:57.763Z,12.80
2023-05-19T10:06:41.615Z,12.93
2023-05-19T10:09:26.994Z,14.20
2023-05-19T10:12:12.428Z,15.13
2023-05-19T10:14:56.556Z,15.17
2023-05-19T10:17:41.177Z,13.53
2023-05-19T10:20:27.766Z,14.20
2023-05-19T10:23:11.114Z,13.83
2023-05-19T10:25:57.798Z,13.93
2023-05-19T10:28:44.834Z,12.63
2023-05-19T10:31:28.827Z,12.80
2023-05-19T10:34:33.451Z,13.17
2023-05-19T10:37:30.094Z,12.90
2023-05-19T10:40:20.974Z,12.63
2023-05-19T10:43:17.011Z,12.90
2023-05-19T10:46:00.343Z,13.33
2023-05-19T10:48:46.858Z,13.50
2023-05-19T10:51:32.754Z,15.10
2023-05-19T10:54:17.906Z,14.30
2023-05-19T10:57:01.854Z,14.53
2023-05-19T10:59:46.279Z,15.07
2023-05-19T11:02:41.645Z,14.73
2023-05-19T11:05:30.804Z,14.90
2023-05-19T11:08:14.701Z,14.70
2023-05-19T11:11:14.383Z,14.87
2023-05-19T11:13:57.913Z,15.07
2023-05-19T11:16:43.335Z,14.57
2023-05-19T11:19:30.899Z,15.53
2023-05-19T11:22:15.490Z,14.60
2023-05-19T11:24:59.276Z,14.90
2023-05-19T11:27:47.675Z,14.07
2023-05-19T11:30:31.341Z,14.80
2023-05-19T11:33:15.308Z,16.03
2023-05-19T11:35:59.590Z,15.20
2023-05-19T11:38:43.731Z,16.63
2023-05-19T11:41:28.447Z,16.57
2023-05-19T11:44:13.211Z,15.10
2023-05-19T11:46:56.594Z,15.63
2023-05-19T11:49:39.980Z,18.13
2023-05-19T11:52:24.644Z,17.33
2023-05-19T11:55:09.825Z,16.10
2023-05-19T11:58:05.093Z,16.53
2023-05-19T12:00:51.774Z,12.23
2023-05-19T12:03:36.035Z,11.50
2023-05-19T12:06:19.578Z,11.47
2023-05-19T12:09:03.384Z,12.27
2023-05-19T12:11:46.692Z,12.03
2023-05-19T12:14:32.232Z,12.53
2023-05-19T12:17:18.112Z,11.47
2023-05-19T12:20:01.632Z,11.93
2023-05-19T12:22:45.391Z,11.70
2023-05-19T12:25:29.966Z,11.90
2023-05-19T12:28:13.241Z,11.83
2023-05-19T12:30:59.027Z,11.93
2023-05-19T12:33:43.722Z,11.17
2023-05-19T12:36:28.656Z,12.20
2023-05-19T12:39:11.948Z,11.80
2023-05-19T12:41:55.133Z,11.50
2023-05-19T12:44:39.638Z,12.17
2023-05-19T12:47:23.341Z,11.97
2023-05-19T12:50:09.742Z,12.60
2023-05-19T12:52:53.423Z,13.50
2023-05-19T12:55:42.957Z,13.27
2023-05-19T12:58:26.744Z,12.83
2023-05-19T13:01:19.534Z,13.30
2023-05-19T13:04:05.427Z,12.80
2023-05-19T13:06:51.028Z,12.53
2023-05-19T13:09:36.628Z,12.23
2023-05-19T13:12:20.732Z,12.50
2023-05-19T13:15:04.031Z,11.83
2023-05-19T13:17:47.807Z,12.60
2023-05-19T13:20:31.996Z,12.40
2023-05-19T13:23:19.849Z,11.37
2023-05-19T13:26:05.000Z,12.07
2023-05-19T13:28:48.422Z,11.83
2023-05-19T13:31:31.699Z,12.40
2023-05-19T13:34:14.878Z,12.37
2023-05-19T13:36:58.097Z,12.30
2023-05-19T13:39:42.700Z,12.70
2023-05-19T13:42:26.071Z,12.23
2023-05-19T13:49:14.453Z,12.00
2023-05-19T13:52:01.267Z,11.90
2023-05-19T13:58:53.743Z,12.90
2023-05-19T14:01:37.317Z,13.03
2023-05-19T14:04:20.668Z,13.10
2023-05-19T14:07:04.379Z,13.67
2023-05-19T14:09:47.816Z,12.87
2023-05-19T14:12:41.593Z,13.40
2023-05-19T14:15:35.577Z,13.17
2023-05-19T14:18:18.866Z,13.20
2023-05-19T14:21:01.980Z,13.00
2023-05-19T14:23:45.162Z,13.67
2023-05-19T14:26:29.373Z,12.93
2023-05-19T14:29:12.665Z,12.80
2023-05-19T14:31:57.489Z,13.97
2023-05-19T14:34:40.739Z,13.03
2023-05-19T14:37:24.417Z,14.23
2023-05-19T14:40:08.834Z,12.30
2023-05-19T14:42:52.148Z,13.90
2023-05-19T14:45:35.424Z,12.90
2023-05-19T14:48:21.069Z,12.57
2023-05-19T14:51:04.971Z,12.70
2023-05-19T14:53:50.518Z,12.37
2023-05-19T14:56:33.955Z,12.60
2023-05-19T14:59:17.903Z,11.77
2023-05-19T15:02:02.084Z,12.40
2023-05-19T15:04:46.781Z,13.00
2023-05-19T15:07:30.279Z,13.30
2023-05-19T15:10:13.584Z,12.37
2023-05-19T15:12:58.099Z,12.10
2023-05-19T15:15:42.675Z,11.57
2023-05-19T15:18:26.171Z,12.60
2023-05-19T15:21:11.093Z,13.23
2023-05-19T15:23:54.533Z,12.97
2023-05-19T15:26:41.364Z,12.43
2023-05-19T15:29:24.615Z,12.50
2023-05-19T15:32:09.078Z,11.90
2023-05-19T15:34:53.769Z,12.40
2023-05-19T15:37:38.674Z,12.43
2023-05-19T15:40:22.285Z,12.70
2023-05-19T15:43:08.670Z,12.30
2023-05-19T15:45:55.311Z,12.40
2023-05-19T15:48:40.986Z,12.90
2023-05-19T15:51:24.840Z,13.00
2023-05-19T15:54:09.546Z,12.50
2023-05-19T15:56:53.377Z,11.80
2023-05-19T15:59:37.467Z,13.13
2023-05-19T16:02:21.123Z,13.47
2023-05-19T16:05:04.615Z,13.23
2023-05-19T16:07:47.846Z,13.20
2023-05-19T16:10:35.323Z,19.17
2023-05-19T16:13:18.859Z,15.90
2023-05-19T16:16:02.194Z,15.00
2023-05-19T16:18:45.704Z,12.70
2023-05-19T16:21:29.225Z,12.60
2023-05-19T16:24:12.570Z,11.83
2023-05-19T16:27:02.928Z,12.10
2023-05-19T16:29:46.199Z,12.60
2023-05-19T16:32:29.667Z,33.50
2023-05-19T16:35:14.024Z,15.57
2023-05-19T16:37:57.257Z,11.93
2023-05-19T16:40:40.925Z,12.20
2023-05-19T16:43:26.414Z,13.07
2023-05-19T16:46:12.267Z,13.93
2023-05-19T16:48:55.519Z,13.13
2023-05-19T16:51:41.119Z,13.53
2023-05-19T16:54:24.207Z,17.63
2023-05-19T16:57:07.385Z,15.50
2023-05-19T16:59:52.210Z,37.70
2023-05-19T17:02:37.821Z,16.87
2023-05-19T17:05:21.282Z,14.03
2023-05-19T17:08:04.556Z,14.07
2023-05-19T17:10:49.109Z,15.50
2023-05-19T17:13:36.254Z,16.10
2023-05-19T17:16:20.934Z,13.47
2023-05-19T17:19:04.749Z,13.53
2023-05-19T17:21:48.231Z,14.70
2023-05-19T17:24:33.347Z,14.30
2023-05-19T17:27:17.189Z,15.23
2023-05-19T17:30:00.659Z,16.57
2023-05-19T17:32:45.800Z,17.63
2023-05-19T17:35:29.146Z,17.07
2023-05-19T17:38:12.294Z,18.40
2023-05-19T17:40:59.064Z,18.90
2023-05-19T17:43:42.856Z,20.63
2023-05-19T17:46:26.527Z,16.83
2023-05-19T17:49:13.201Z,18.83
2023-05-19T17:51:57.304Z,15.57
2023-05-19T17:54:41.210Z,15.07
2023-05-19T17:57:27.131Z,14.50
2023-05-19T18:00:11.785Z,15.20
2023-05-19T18:02:57.127Z,15.77
2023-05-19T18:05:43.388Z,14.73
2023-05-19T18:08:27.419Z,14.70
2023-05-19T18:11:18.449Z,13.30
2023-05-19T18:14:01.772Z,13.57
2023-05-19T18:16:45.661Z,13.33
2023-05-19T18:19:29.099Z,13.70
2023-05-19T18:22:15.069Z,14.10
2023-05-19T18:24:59.003Z,15.43
2023-05-19T18:27:43.866Z,15.90
2023-05-19T18:30:27.132Z,15.57
2023-05-19T18:33:11.056Z,16.13
2023-05-19T18:35:54.296Z,16.23
2023-05-19T18:38:38.853Z,16.67
2023-05-19T18:41:22.118Z,16.67
2023-05-19T18:44:08.011Z,17.40
2023-05-19T18:46:51.234Z,16.93
2023-05-19T18:49:34.735Z,15.97
2023-05-19T18:52:19.498Z,16.50
2023-05-19T18:55:05.272Z,16.73
2023-05-19T18:57:48.694Z,18.43
2023-05-19T19:00:33.133Z,20.00
2023-05-19T19:03:17.133Z,18.23
2023-05-19T19:06:01.557Z,26.43
2023-05-19T19:08:45.098Z,40.63
2023-05-19T19:11:29.897Z,21.70
2023-05-19T19:14:13.129Z,17.13
2023-05-19T19:16:56.351Z,17.10
2023-05-19T19:19:39.796Z,18.30
2023-05-19T19:22:23.315Z,16.30
2023-05-19T19:25:07.283Z,15.93
2023-05-19T19:27:51.880Z,18.23
2023-05-19T19:30:35.686Z,16.00
2023-05-19T19:33:19.238Z,15.00
2023-05-19T19:36:03.036Z,14.20
2023-05-19T19:38:46.205Z,14.50
2023-05-19T19:41:29.959Z,13.53
2023-05-19T19:44:14.815Z,13.83
2023-05-19T19:46:58.492Z,14.17
2023-05-19T19:49:42.341Z,15.50
2023-05-19T19:52:28.779Z,15.23
2023-05-19T19:55:12.365Z,14.23
2023-05-19T19:57:55.656Z,14.40
2023-05-19T20:00:40.594Z,14.10
2023-05-19T20:03:23.888Z,14.13
2023-05-19T20:06:08.532Z,14.43
2023-05-19T20:08:51.896Z,15.27
2023-05-19T20:11:35.728Z,14.60
2023-05-19T20:14:19.542Z,14.43
2023-05-19T20:17:04.701Z,14.37
2023-05-19T20:19:50.697Z,15.30
2023-05-19T20:22:34.026Z,14.13
2023-05-19T20:25:17.388Z,14.47
2023-05-19T20:28:00.612Z,15.43
2023-05-19T20:30:43.800Z,15.17
2023-05-19T20:33:29.953Z,14.43
2023-05-19T20:36:13.470Z,15.10
2023-05-19T20:38:56.735Z,14.17
2023-05-19T20:41:39.980Z,14.40
2023-05-19T20:44:23.240Z,13.87
2023-05-19T20:47:08.259Z,14.17
2023-05-19T20:49:54.024Z,15.53
2023-05-19T20:52:37.410Z,15.23
2023-05-19T20:55:20.786Z,14.97
2023-05-19T20:58:04.052Z,15.03
2023-05-19T21:01:04.231Z,14.77
2023-05-19T21:03:55.808Z,14.33
2023-05-19T21:06:40.400Z,15.50
2023-05-19T21:09:25.083Z,16.23
2023-05-19T21:12:08.665Z,14.67
2023-05-19T21:14:52.090Z,16.63
2023-05-19T21:17:35.318Z,15.53
2023-05-19T21:20:18.903Z,17.77
2023-05-19T21:23:03.714Z,14.93
2023-05-19T21:25:47.035Z,15.00
2023-05-19T21:28:30.329Z,16.50
2023-05-19T21:31:13.620Z,15.03
2023-05-19T21:33:57.183Z,15.00
2023-05-19T21:36:40.720Z,15.07
2023-05-19T21:39:25.450Z,15.43
2023-05-19T21:42:12.019Z,14.30
2023-05-19T21:44:55.532Z,15.10
2023-05-19T21:47:38.742Z,17.27
2023-05-19T21:50:22.055Z,16.23
2023-05-19T21:53:05.697Z,16.67
2023-05-19T21:55:50.498Z,16.17
2023-05-19T21:58:33.745Z,15.80
2023-05-19T22:01:16.968Z,14.80
2023-05-19T22:04:00.386Z,15.90
2023-05-19T22:06:43.929Z,14.73
2023-05-19T22:09:29.409Z,15.53
2023-05-19T22:12:14.287Z,15.13
2023-05-19T22:15:00.058Z,14.97
2023-05-19T22:17:43.916Z,14.87
2023-05-19T22:20:27.185Z,15.03
2023-05-19T22:23:10.878Z,16.00
2023-05-19T22:25:54.373Z,15.17
2023-05-19T22:28:42.538Z,15.83
2023-05-19T22:31:26.387Z,14.93
2023-05-19T22:34:09.601Z,15.27
2023-05-19T22:36:52.985Z,15.63
2023-05-19T22:39:36.318Z,15.17
2023-05-19T22:42:19.836Z,14.97
2023-05-19T22:45:04.638Z,15.63
2023-05-19T22:47:49.477Z,15.43
2023-05-19T22:50:32.940Z,14.73
2023-05-19T22:53:16.347Z,15.60
2023-05-19T22:55:59.668Z,16.80
2023-05-19T22:58:42.864Z,15.13
2023-05-19T23:01:27.594Z,14.70
2023-05-19T23:04:11.593Z,15.63
2023-05-19T23:06:54.862Z,15.07
2023-05-19T23:09:38.601Z,16.37
2023-05-19T23:12:21.916Z,16.27
2023-05-19T23:15:05.748Z,16.60
2023-05-19T23:17:50.364Z,16.23
2023-05-19T23:20:34.462Z,15.90
2023-05-19T23:23:18.160Z,16.73
2023-05-19T23:26:01.349Z,14.97
2023-05-19T23:28:44.863Z,15.43
2023-05-19T23:31:28.177Z,16.27
2023-05-19T23:34:13.323Z,15.93
2023-05-19T23:36:56.650Z,15.33
2023-05-19T23:39:39.884Z,14.97
2023-05-19T23:42:23.014Z,16.33
2023-05-19T23:45:07.088Z,16.03
2023-05-19T23:47:50.306Z,15.13
2023-05-19T23:50:34.953Z,15.70
2023-05-19T23:53:18.381Z,15.83
2023-05-19T23:56:02.040Z,15.70
2023-05-19T23:58:45.319Z,15.83
